KSPA/SPA METAR and TAF weather

Enter ICAO airport designator
Station Type Date Time Source
KSPA METAR 2019/10/21 04:55 UTC NOAA

KSPA 210455Z AUTO 01003KT 10SM CLR 16/14 A2997 RMK AO2


Station Type Date Time Source
KSPA Decoded METAR 2019/10/21 04:55 UTC NOAA

Spartanburg Memorial, SC, United States (KSPA) 34-55N 081-57W
Oct 21, 2019 - 12:55 AM EDT / 2019.10.21 0455 UTC
Wind: from the N (010 degrees) at 3 MPH (3 KT):0
Visibility: 10 mile(s):0
Sky conditions: clear
Temperature: 60 F (16 C)
Dew Point: 57 F (14 C)
Relative Humidity: 87%
Pressure (altimeter): 29.97 in. Hg (1014 hPa)
ob: KSPA 210455Z AUTO 01003KT 10SM CLR 16/14 A2997 RMK AO2
cycle: 5

Station Type Date Time Source
KSPA TAF UTC NOAA

Error!

Example: see airport list